Date,TemperatureHighF,TemperatureAvgF,TemperatureLowF,DewpointHighF,DewpointAvgF,DewpointLowF,HumidityHigh,HumidityAvg,HumidityLow,PressureMaxIn,PressureMinIn,WindSpeedMaxMPH,WindSpeedAvgMPH,GustSpeedMaxMPH,PrecipitationSumIn
2013-1-2,25.0,24.0,23.0,-99.9,-99.9,-99.9,0,0,100,30.09,30.04,23,14,0,0.00
2013-1-3,25.0,25.0,25.0,-99.9,-99.9,-99.9,0,0,100,29.98,29.98,36,36,0,0.00
2013-1-5,30.0,30.0,30.0,-99.9,-99.9,-99.9,0,0,100,30.13,30.13,46,46,0,0.00
2013-1-6,30.0,30.0,30.0,-99.9,-99.9,-99.9,0,0,100,29.79,29.79,23,23,0,0.00
2013-1-8,32.0,29.9,27.0,-99.9,-99.9,-99.9,0,0,100,30.24,29.96,23,22,0,0.00
2013-4-16,60.0,56.1,51.0,-99.9,-99.9,-99.9,0,0,100,30.17,30.06,18,10,0,0.00
2013-4-17,53.0,47.8,43.0,-99.9,-99.9,-99.9,0,0,100,30.36,30.16,18,13,0,0.00
2013-4-18,78.0,57.9,45.0,-99.9,-99.9,-99.9,0,0,100,30.09,29.66,20,12,0,0.00
2013-4-19,58.0,44.8,37.0,-99.9,-99.9,-99.9,0,0,100,29.65,29.45,51,28,0,0.00
2013-4-20,32.0,24.2,19.0,-99.9,-99.9,-99.9,0,0,100,30.33,29.60,45,31,0,0.00
2013-4-21,41.0,33.7,24.0,-99.9,-99.9,-99.9,0,0,100,30.53,30.32,32,20,0,0.00
2013-4-22,37.0,35.9,35.0,-99.9,-99.9,-99.9,0,0,100,30.37,30.24,36,22,0,0.00
2013-4-23,70.0,55.9,43.0,-99.9,-99.9,-99.9,0,0,100,30.24,29.91,16,13,0,0.00
2013-4-24,54.0,41.6,34.0,-99.9,-99.9,-99.9,0,0,100,29.88,29.78,32,21,0,0.00
2013-4-25,42.0,36.4,32.0,-99.9,-99.9,-99.9,0,0,100,30.19,29.84,28,11,0,0.00
2013-4-26,42.0,34.0,29.0,-99.9,-99.9,-99.9,0,0,100,30.35,30.27,18,11,0,0.00
2013-4-27,65.0,53.6,41.0,-99.9,-99.9,-99.9,0,0,100,30.40,30.19,32,11,0,0.00
2013-4-28,49.0,43.3,40.0,-99.9,-99.9,-99.9,0,0,100,30.12,29.93,18,11,0,0.00
2013-4-29,56.0,47.2,38.0,-99.9,-99.9,-99.9,0,0,100,29.93,29.84,21,10,0,0.00
2013-4-30,65.0,55.4,45.0,-99.9,-99.9,-99.9,0,0,100,29.82,29.64,26,16,0,0.00
2013-5-1,56.0,48.9,43.0,-99.9,-99.9,-99.9,0,0,100,30.18,29.89,22,13,0,0.00
2013-5-2,76.0,65.8,54.0,-99.9,-99.9,-99.9,0,0,100,30.32,30.18,18,13,0,0.00
2013-5-3,65.0,54.8,41.0,-99.9,-99.9,-99.9,0,0,100,30.22,30.18,23,12,0,0.00
2013-5-4,38.0,36.8,35.0,-99.9,-99.9,-99.9,0,0,100,30.25,30.20,21,15,0,0.00
2013-5-5,46.0,43.6,37.0,-99.9,-99.9,-99.9,0,0,100,30.22,30.12,21,9,0,0.00
2013-5-6,71.0,59.3,51.0,-99.9,-99.9,-99.9,0,0,100,30.13,30.01,21,8,0,0.00
2013-5-7,66.0,64.7,64.0,-99.9,-99.9,-99.9,0,0,100,30.06,30.03,14,11,0,0.00
2013-5-8,62.0,58.6,53.0,-99.9,-99.9,-99.9,0,0,100,30.07,30.01,17,10,0,0.00
2013-5-9,56.0,42.2,36.0,-99.9,-99.9,-99.9,0,0,100,30.22,29.96,21,14,0,0.00
2013-5-10,40.0,36.0,34.0,-99.9,-99.9,-99.9,0,0,100,30.24,30.03,23,9,0,0.00
2013-5-11,55.0,43.4,38.0,-99.9,-99.9,-99.9,0,0,100,29.98,29.73,30,13,0,0.00
2013-5-12,48.0,42.8,38.0,-99.9,-99.9,-99.9,0,0,100,30.07,29.93,24,15,0,0.00
2013-5-13,49.0,40.8,34.0,-99.9,-99.9,-99.9,0,0,100,30.22,30.14,11,7,0,0.00
2013-5-14,71.0,54.9,44.0,-99.9,-99.9,-99.9,0,0,100,30.16,29.78,29,14,0,0.00
2013-5-15,81.0,71.1,63.0,-99.9,-99.9,-99.9,0,0,100,29.80,29.70,34,16,0,0.00
2013-5-16,58.0,41.1,42.0,-99.9,-99.9,-99.9,0,0,100,30.05,29.80,30,21,0,0.00
2013-5-17,47.0,40.4,38.0,-99.9,-99.9,-99.9,0,0,100,30.23,30.11,26,14,0,0.00
2013-5-18,44.0,39.7,37.0,-99.9,-99.9,-99.9,0,0,100,30.12,29.97,29,14,0,0.00
2013-5-19,63.0,52.1,41.0,-99.9,-99.9,-99.9,0,0,100,29.97,29.88,24,12,0,0.00
2013-5-20,43.0,41.9,39.0,-99.9,-99.9,-99.9,0,0,100,29.79,29.68,34,28,0,0.00
2013-5-21,43.0,41.1,40.0,-99.9,-99.9,-99.9,0,0,100,29.84,29.71,38,25,0,0.00
2013-5-22,45.0,42.5,39.0,-99.9,-99.9,-99.9,0,0,100,29.91,29.84,34,15,0,0.00
2013-5-23,51.0,43.3,39.0,-99.9,-99.9,-99.9,0,0,100,30.13,29.94,41,23,0,0.00
2013-5-24,55.0,43.6,38.0,-99.9,-99.9,-99.9,0,0,100,30.40,30.23,29,19,0,0.00
2013-5-25,57.0,47.5,44.0,-99.9,-99.9,-99.9,0,0,100,30.43,30.37,13,8,0,0.00
2013-5-26,66.0,56.4,46.0,-99.9,-99.9,-99.9,0,0,100,30.38,30.28,15,6,0,0.00
2013-5-27,61.0,53.2,48.0,-99.9,-99.9,-99.9,0,0,100,30.31,30.12,16,8,0,0.00
2013-5-28,57.0,54.1,51.0,-99.9,-99.9,-99.9,0,0,100,30.06,29.93,14,7,0,0.00
2013-5-29,64.0,54.4,49.0,-99.9,-99.9,-99.9,0,0,100,29.93,29.79,13,7,0,0.00
2013-6-3,48.0,44.7,40.0,-99.9,-99.9,-99.9,0,0,100,30.09,30.08,23,19,0,0.00
2013-6-4,67.0,58.8,50.0,-99.9,-99.9,-99.9,0,0,100,30.27,30.21,14,10,0,0.00
2013-6-5,61.0,59.4,55.0,-99.9,-99.9,-99.9,0,0,100,30.22,30.06,22,13,0,0.00
2013-6-6,62.0,56.9,48.0,-99.9,-99.9,-99.9,0,0,100,30.04,29.92,25,14,0,0.00
2013-6-7,54.0,45.6,41.0,-99.9,-99.9,-99.9,0,0,100,30.04,30.01,13,5,0,0.00
2013-6-8,68.0,51.9,40.0,-99.9,-99.9,-99.9,0,0,100,30.05,29.98,13,8,0,0.00
2013-6-9,76.0,64.6,53.0,-99.9,-99.9,-99.9,0,0,100,30.20,30.05,17,10,0,0.00
2013-6-10,67.0,59.0,47.0,-99.9,-99.9,-99.9,0,0,100,30.01,29.91,23,14,0,0.00
2013-6-11,61.0,57.8,53.0,-99.9,-99.9,-99.9,0,0,100,29.92,29.86,13,6,0,0.00
2013-6-12,74.0,58.4,51.0,-99.9,-99.9,-99.9,0,0,100,29.96,29.86,17,7,0,0.00
2013-6-13,61.0,55.0,50.0,-99.9,-99.9,-99.9,0,0,100,30.16,29.96,23,12,0,0.00
2013-6-14,62.0,54.9,43.0,-99.9,-99.9,-99.9,0,0,100,30.20,30.09,10,5,0,0.00
2013-6-15,79.0,67.1,51.0,-99.9,-99.9,-99.9,0,0,100,30.14,30.02,14,8,0,0.00
2013-6-16,81.0,72.2,68.0,-99.9,-99.9,-99.9,0,0,100,29.94,29.88,21,14,0,0.00
2013-6-17,73.0,68.6,65.0,-99.9,-99.9,-99.9,0,0,100,29.97,29.93,16,8,0,0.00
2013-6-20,59.0,58.5,58.0,-99.9,-99.9,-99.9,0,0,100,30.17,30.16,16,12,0,0.00
2013-6-22,52.0,50.0,47.0,-99.9,-99.9,-99.9,0,0,100,30.11,29.97,23,11,0,0.00
2013-6-23,55.0,48.0,44.0,-99.9,-99.9,-99.9,0,0,100,29.97,29.90,23,15,0,0.00
2013-6-24,81.0,69.5,62.0,-99.9,-99.9,-99.9,0,0,100,30.00,29.94,25,13,0,0.00
2013-6-25,79.0,72.4,68.0,-99.9,-99.9,-99.9,0,0,100,29.99,29.83,28,16,0,0.00
2013-6-26,70.0,70.0,70.0,-99.9,-99.9,-99.9,0,0,100,29.85,29.85,10,10,0,0.00
2013-6-27,80.0,75.9,72.0,-99.9,-99.9,-99.9,0,0,100,29.72,29.68,16,9,0,0.00
2013-6-28,69.0,61.9,54.0,-99.9,-99.9,-99.9,0,0,100,29.65,29.59,10,7,0,0.00
2013-6-29,58.0,55.6,49.0,-99.9,-99.9,-99.9,0,0,100,29.77,29.71,21,10,0,0.00
2013-7-1,68.0,65.0,63.0,-99.9,-99.9,-99.9,0,0,100,29.93,29.88,36,16,0,0.00
2013-7-2,66.0,64.6,63.0,-99.9,-99.9,-99.9,0,0,100,30.06,29.98,21,12,0,0.00
2013-7-3,67.0,67.0,67.0,-99.9,-99.9,-99.9,0,0,100,30.05,30.05,12,12,0,0.00
2013-7-4,78.0,68.5,63.0,-99.9,-99.9,-99.9,0,0,100,30.05,29.91,16,7,0,0.00
2013-7-5,82.0,71.8,60.0,-99.9,-99.9,-99.9,0,0,100,29.97,29.94,17,11,0,0.00
2013-7-6,73.0,73.0,73.0,-99.9,-99.9,-99.9,0,0,100,30.01,30.01,2,2,0,0.00
2013-7-7,74.0,71.8,71.0,-99.9,-99.9,-99.9,0,0,100,30.02,29.98,22,11,0,0.00
2013-7-8,79.0,72.3,68.0,-99.9,-99.9,-99.9,0,0,100,30.04,29.97,23,10,0,0.00
2013-7-9,71.0,67.5,65.0,-99.9,-99.9,-99.9,0,0,100,29.99,29.83,15,7,0,0.00
2013-7-10,72.0,68.8,64.0,-99.9,-99.9,-99.9,0,0,100,29.83,29.65,35,21,0,0.00
2013-7-11,77.0,70.0,65.0,-99.9,-99.9,-99.9,0,0,100,30.10,30.04,13,8,0,0.00
2013-7-12,67.0,63.5,62.0,-99.9,-99.9,-99.9,0,0,100,30.15,30.09,13,9,0,0.00
2013-7-13,74.0,67.6,65.0,-99.9,-99.9,-99.9,0,0,100,30.18,30.07,15,10,0,0.00
2013-7-14,86.0,73.7,61.0,-99.9,-99.9,-99.9,0,0,100,30.19,30.16,24,14,0,0.00
2013-7-15,77.0,71.7,66.0,-99.9,-99.9,-99.9,0,0,100,30.25,30.22,3,2,0,0.00
2013-7-16,87.0,74.8,66.0,-99.9,-99.9,-99.9,0,0,100,30.26,30.16,16,9,0,0.00
2013-7-17,93.0,84.8,76.0,-99.9,-99.9,-99.9,0,0,100,30.26,30.14,12,8,0,0.00
2013-7-18,84.0,78.8,74.0,-99.9,-99.9,-99.9,0,0,100,30.15,29.84,18,11,0,0.00
2013-7-19,84.0,77.5,68.0,-99.9,-99.9,-99.9,0,0,100,29.72,29.58,35,17,0,0.00
2013-7-20,70.0,69.0,68.0,-99.9,-99.9,-99.9,0,0,100,29.87,29.73,22,19,0,0.00
2013-7-21,77.0,71.8,67.0,-99.9,-99.9,-99.9,0,0,100,30.00,29.91,16,9,0,0.00
2013-7-22,79.0,75.7,73.0,-99.9,-99.9,-99.9,0,0,100,29.94,29.78,14,10,0,0.00
2013-7-23,74.0,70.2,62.0,-99.9,-99.9,-99.9,0,0,100,29.79,29.67,40,13,0,0.00
2013-7-24,67.0,61.6,55.0,-99.9,-99.9,-99.9,0,0,100,30.05,29.87,24,12,0,0.00
2013-7-25,67.0,64.4,61.0,-99.9,-99.9,-99.9,0,0,100,30.06,30.00,24,12,0,0.00
2013-7-26,75.0,69.0,61.0,-99.9,-99.9,-99.9,0,0,100,30.09,30.04,15,8,0,0.00
2013-7-27,71.0,68.1,65.0,-99.9,-99.9,-99.9,0,0,100,29.93,29.83,31,14,0,0.00
2013-7-28,63.0,59.2,55.0,-99.9,-99.9,-99.9,0,0,100,29.83,29.75,28,18,0,0.00
2013-7-29,64.0,57.8,53.0,-99.9,-99.9,-99.9,0,0,100,30.09,29.87,17,9,0,0.00
2013-7-30,70.0,64.7,56.0,-99.9,-99.9,-99.9,0,0,100,30.23,30.15,14,6,0,0.00
2013-7-31,73.0,67.0,60.0,-99.9,-99.9,-99.9,0,0,100,30.14,29.90,22,13,0,0.00
2013-8-1,67.0,65.5,61.0,-99.9,-99.9,-99.9,0,0,100,29.84,29.80,21,14,0,0.00
2013-8-2,68.0,58.8,54.0,-99.9,-99.9,-99.9,0,0,100,29.86,29.80,24,11,0,0.00
2013-8-3,64.0,60.2,56.0,-99.9,-99.9,-99.9,0,0,100,30.08,29.92,22,9,0,0.00
2013-8-4,64.0,59.2,55.0,-99.9,-99.9,-99.9,0,0,100,30.16,30.06,15,11,0,0.00
2013-8-5,71.0,65.8,57.0,-99.9,-99.9,-99.9,0,0,100,30.12,30.01,20,8,0,0.00
2013-8-6,77.0,69.4,65.0,-99.9,-99.9,-99.9,0,0,100,29.98,29.89,23,12,0,0.00
2013-8-7,70.0,67.4,65.0,-99.9,-99.9,-99.9,0,0,100,29.88,29.69,25,18,0,0.00
2013-8-8,69.0,62.8,58.0,-99.9,-99.9,-99.9,0,0,100,30.01,29.91,22,13,0,0.00
2013-8-9,69.0,64.0,60.0,-99.9,-99.9,-99.9,0,0,100,29.98,29.89,16,9,0,0.00
2013-8-10,67.0,60.8,56.0,-99.9,-99.9,-99.9,0,0,100,30.10,30.04,16,10,0,0.00
2013-8-11,79.0,70.7,62.0,-99.9,-99.9,-99.9,0,0,100,30.13,30.02,18,10,0,0.00
2013-8-12,69.0,64.9,60.0,-99.9,-99.9,-99.9,0,0,100,30.04,29.84,20,9,0,0.00
2013-8-13,59.0,55.3,54.0,-99.9,-99.9,-99.9,0,0,100,30.16,29.89,22,12,0,0.00
2013-8-14,65.0,58.2,55.0,-99.9,-99.9,-99.9,0,0,100,30.12,30.09,23,15,0,0.00
2013-8-15,72.0,57.0,54.0,-99.9,-99.9,-99.9,0,0,100,30.18,30.06,21,9,0,0.00
2013-8-16,76.0,63.9,59.0,-99.9,-99.9,-99.9,0,0,100,30.17,30.11,14,6,0,0.00
2013-8-17,69.0,64.1,57.0,-99.9,-99.9,-99.9,0,0,100,30.22,30.18,13,5,0,0.00
2013-8-18,74.0,68.6,63.0,-99.9,-99.9,-99.9,0,0,100,30.17,30.07,18,14,0,0.00
2013-8-19,73.0,67.1,63.0,-99.9,-99.9,-99.9,0,0,100,30.04,30.01,16,10,0,0.00
2013-8-20,82.0,72.3,67.0,-99.9,-99.9,-99.9,0,0,100,30.14,30.05,20,8,0,0.00
2013-8-21,82.0,74.1,66.0,-99.9,-99.9,-99.9,0,0,100,30.16,30.01,17,9,0,0.00
2013-8-22,75.0,71.2,67.0,-99.9,-99.9,-99.9,0,0,100,30.02,29.94,26,15,0,0.00
2013-8-23,74.0,66.2,60.0,-99.9,-99.9,-99.9,0,0,100,30.21,30.10,20,6,0,0.00
2013-8-24,66.0,62.5,55.0,-99.9,-99.9,-99.9,0,0,100,30.27,30.16,22,14,0,0.00
2013-8-25,86.0,74.8,59.0,-99.9,-99.9,-99.9,0,0,100,30.30,30.14,21,11,0,0.00
2013-8-26,80.0,73.1,68.0,-99.9,-99.9,-99.9,0,0,100,30.14,29.89,32,16,0,0.00
2013-8-27,76.0,68.7,62.0,-99.9,-99.9,-99.9,0,0,100,29.92,29.84,14,7,0,0.00
2013-8-28,71.0,70.0,69.0,-99.9,-99.9,-99.9,0,0,100,29.98,29.97,9,8,0,0.00
2013-8-29,85.0,76.1,68.0,-99.9,-99.9,-99.9,0,0,100,30.09,30.01,11,7,0,0.00
2013-8-30,74.0,71.8,70.0,-99.9,-99.9,-99.9,0,0,100,29.99,29.68,25,15,0,0.00
2013-8-31,69.0,65.8,60.0,-99.9,-99.9,-99.9,0,0,100,29.91,29.83,15,7,0,0.00
2013-9-1,77.0,66.6,59.0,-99.9,-99.9,-99.9,0,0,100,29.85,29.65,34,17,0,0.00
2013-9-2,62.0,56.0,53.0,-99.9,-99.9,-99.9,0,0,100,29.97,29.83,17,11,0,0.00
2013-9-3,67.0,61.7,57.0,-99.9,-99.9,-99.9,0,0,100,29.95,29.91,26,18,0,0.00
2013-9-4,81.0,69.6,56.0,-99.9,-99.9,-99.9,0,0,100,30.06,29.94,22,13,0,0.00
2013-9-5,74.0,67.8,65.0,-99.9,-99.9,-99.9,0,0,100,30.22,30.03,22,14,0,0.00
2013-9-6,69.0,60.3,54.0,-99.9,-99.9,-99.9,0,0,100,30.27,30.07,21,6,0,0.00
2013-9-7,72.0,64.5,59.0,-99.9,-99.9,-99.9,0,0,100,29.95,29.84,20,8,0,0.00
2013-9-8,62.0,58.7,55.0,-99.9,-99.9,-99.9,0,0,100,30.19,30.05,21,11,0,0.00
2013-9-9,69.0,64.0,59.0,-99.9,-99.9,-99.9,0,0,100,30.00,29.73,20,9,0,0.00
2013-9-10,74.0,66.1,64.0,-99.9,-99.9,-99.9,0,0,100,29.80,29.69,22,10,0,0.00
2013-9-11,92.0,80.9,73.0,-99.9,-99.9,-99.9,0,0,100,30.04,29.90,18,12,0,0.00
2013-9-12,77.0,72.5,63.0,-99.9,-99.9,-99.9,0,0,100,29.94,29.83,23,11,0,0.00
2013-9-13,60.0,54.9,49.0,-99.9,-99.9,-99.9,0,0,100,30.07,29.89,40,27,0,0.00
2013-9-14,69.0,63.8,50.0,-99.9,-99.9,-99.9,0,0,100,30.07,29.92,17,11,0,0.00
2013-9-15,66.0,61.1,59.0,-99.9,-99.9,-99.9,0,0,100,30.00,29.90,25,16,0,0.00
2013-9-16,63.0,58.4,55.0,-99.9,-99.9,-99.9,0,0,100,30.32,30.12,34,19,0,0.00
2013-9-17,59.0,53.4,44.0,-99.9,-99.9,-99.9,0,0,100,30.40,30.22,20,12,0,0.00
2013-9-18,55.0,51.7,49.0,-99.9,-99.9,-99.9,0,0,100,30.14,30.09,14,6,0,0.00
2013-9-19,71.0,64.9,62.0,-99.9,-99.9,-99.9,0,0,100,29.92,29.80,25,15,0,0.00
2013-9-20,81.0,71.6,66.0,-99.9,-99.9,-99.9,0,0,100,29.85,29.75,26,17,0,0.00
2013-9-21,67.0,64.9,63.0,-99.9,-99.9,-99.9,0,0,100,29.75,29.67,29,12,0,0.00
2013-9-22,56.0,51.8,47.0,-99.9,-99.9,-99.9,0,0,100,29.99,29.88,33,18,0,0.00
2013-9-23,56.0,49.1,40.0,-99.9,-99.9,-99.9,0,0,100,30.19,30.10,14,7,0,0.00
2013-9-24,59.0,52.7,42.0,-99.9,-99.9,-99.9,0,0,100,30.17,30.03,16,9,0,0.00
2013-9-25,63.0,55.7,52.0,-99.9,-99.9,-99.9,0,0,100,30.04,29.99,20,6,0,0.00
2013-9-26,65.0,59.8,50.0,-99.9,-99.9,-99.9,0,0,100,30.12,30.04,11,7,0,0.00
2013-9-27,73.0,63.5,56.0,-99.9,-99.9,-99.9,0,0,100,30.24,30.14,23,6,0,0.00
2013-9-28,76.0,63.9,55.0,-99.9,-99.9,-99.9,0,0,100,30.19,30.06,16,8,0,0.00
2013-9-29,68.0,65.6,59.0,-99.9,-99.9,-99.9,0,0,100,30.03,29.94,16,10,0,0.00
2013-9-30,59.0,57.9,57.0,-99.9,-99.9,-99.9,0,0,100,29.96,29.88,18,15,0,0.00
2013-10-1,64.0,64.0,64.0,-99.9,-99.9,-99.9,0,0,100,29.82,29.82,21,21,0,0.00
2013-10-2,64.0,58.1,53.0,-99.9,-99.9,-99.9,0,0,100,30.00,29.82,34,17,0,0.00
2013-10-3,56.0,54.9,54.0,-99.9,-99.9,-99.9,0,0,100,30.00,29.94,32,10,0,0.00
2013-10-4,55.0,54.3,53.0,-99.9,-99.9,-99.9,0,0,100,30.07,30.00,30,24,0,0.00
2013-10-5,52.0,49.4,46.0,-99.9,-99.9,-99.9,0,0,100,30.12,30.03,38,22,0,0.00
2013-10-6,63.0,60.7,58.0,-99.9,-99.9,-99.9,0,0,100,29.89,29.78,34,30,0,0.00
2013-10-9,62.0,59.6,57.0,-99.9,-99.9,-99.9,0,0,100,30.37,30.29,9,3,0,0.00
2013-10-10,67.0,58.9,50.0,-99.9,-99.9,-99.9,0,0,100,30.22,30.13,22,10,0,0.00
2013-10-11,61.0,54.5,47.0,-99.9,-99.9,-99.9,0,0,100,30.12,30.09,13,8,0,0.00
2013-10-12,64.0,58.3,51.0,-99.9,-99.9,-99.9,0,0,100,30.08,29.81,32,16,0,0.00
2013-10-13,56.0,53.9,51.0,-99.9,-99.9,-99.9,0,0,100,30.30,29.97,17,13,0,0.00
2013-10-14,64.0,57.1,49.0,-99.9,-99.9,-99.9,0,0,100,30.40,30.27,22,12,0,0.00
2013-10-15,58.0,54.8,47.0,-99.9,-99.9,-99.9,0,0,100,30.24,29.82,24,15,0,0.00
2013-10-16,57.0,53.5,49.0,-99.9,-99.9,-99.9,0,0,100,29.78,29.58,36,20,0,0.00
2013-10-17,49.0,47.2,43.0,-99.9,-99.9,-99.9,0,0,100,29.86,29.72,16,8,0,0.00
2013-10-18,50.0,46.6,44.0,-99.9,-99.9,-99.9,0,0,100,29.83,29.69,36,11,0,0.00
2013-10-19,49.0,46.0,44.0,-99.9,-99.9,-99.9,0,0,100,29.81,29.65,30,14,0,0.00
2013-10-20,59.0,49.3,41.0,-99.9,-99.9,-99.9,0,0,100,29.91,29.71,32,17,0,0.00
2013-10-21,58.0,52.4,43.0,-99.9,-99.9,-99.9,0,0,100,29.85,29.65,44,28,0,0.00
2013-10-22,42.0,37.1,32.0,-99.9,-99.9,-99.9,0,0,100,29.76,29.58,43,25,0,0.00
2013-10-23,37.0,35.8,35.0,-99.9,-99.9,-99.9,0,0,100,29.83,29.76,31,25,0,0.00
2013-10-24,42.0,39.2,34.0,-99.9,-99.9,-99.9,0,0,100,30.24,30.13,15,9,0,0.00
2013-10-25,42.0,39.5,37.0,-99.9,-99.9,-99.9,0,0,100,30.24,29.99,32,18,0,0.00
2013-11-3,44.0,41.9,39.0,-99.9,-99.9,-99.9,0,0,100,30.37,30.33,11,7,0,0.00
2013-11-4,47.0,40.1,34.0,-99.9,-99.9,-99.9,0,0,100,30.47,30.34,21,13,0,0.00
2013-11-5,51.0,48.3,45.0,-99.9,-99.9,-99.9,0,0,100,30.30,30.17,24,14,0,0.00
2013-11-6,45.0,39.7,36.0,-99.9,-99.9,-99.9,0,0,100,30.03,29.74,36,19,0,0.00
2013-11-7,40.0,37.5,35.0,-99.9,-99.9,-99.9,0,0,100,29.97,29.91,31,21,0,0.00
2013-11-8,45.0,38.9,31.0,-99.9,-99.9,-99.9,0,0,100,30.27,30.02,29,14,0,0.00
2013-11-9,48.0,44.3,39.0,-99.9,-99.9,-99.9,0,0,100,30.17,29.62,36,22,0,0.00
2013-11-10,40.0,40.0,40.0,-99.9,-99.9,-99.9,0,0,100,30.13,29.70,26,20,0,0.00
2013-11-11,46.0,42.1,35.0,-99.9,-99.9,-99.9,0,0,100,30.13,30.01,30,22,0,0.00
2013-11-12,30.0,28.1,26.0,-99.9,-99.9,-99.9,0,0,100,30.47,30.29,30,15,0,0.00
2013-11-14,39.0,39.0,39.0,-99.9,-99.9,-99.9,0,0,100,29.79,29.79,18,18,0,0.00
2013-11-15,50.0,43.5,38.0,-99.9,-99.9,-99.9,0,0,100,29.95,29.78,28,15,0,0.00
2013-11-16,44.0,42.7,41.0,-99.9,-99.9,-99.9,0,0,100,30.10,30.05,18,9,0,0.00
2013-11-18,44.0,42.9,41.0,-99.9,-99.9,-99.9,0,0,100,29.98,29.78,32,15,0,0.00
2013-11-19,41.0,36.9,34.0,-99.9,-99.9,-99.9,0,0,100,30.34,30.12,29,14,0,0.00
2013-11-21,47.0,45.4,42.0,-99.9,-99.9,-99.9,0,0,100,30.23,30.15,32,24,0,0.00
2013-11-22,45.0,42.3,36.0,-99.9,-99.9,-99.9,0,0,100,30.17,30.09,41,15,0,0.00
2013-11-23,18.0,13.7,10.0,-99.9,-99.9,-99.9,0,0,100,30.32,30.18,40,25,0,0.00
2013-11-24,16.0,16.0,16.0,-99.9,-99.9,-99.9,0,0,100,30.42,30.42,24,24,0,0.00
2013-11-25,32.0,31.4,31.0,-99.9,-99.9,-99.9,0,0,100,29.78,29.69,33,19,0,0.00
2013-11-26,35.0,33.9,33.0,-99.9,-99.9,-99.9,0,0,100,29.98,29.86,29,20,0,0.00
2013-11-27,32.0,26.9,23.0,-99.9,-99.9,-99.9,0,0,100,30.08,29.88,29,18,0,0.00
2013-11-28,26.0,21.7,17.0,-99.9,-99.9,-99.9,0,0,100,30.31,30.15,25,16,0,0.00
2013-11-29,29.0,18.9,12.0,-99.9,-99.9,-99.9,0,0,100,30.59,30.42,14,10,0,0.00
2013-11-30,32.0,30.0,28.0,-99.9,-99.9,-99.9,0,0,100,30.40,30.01,22,14,0,0.00
2013-12-1,33.0,31.4,29.0,-99.9,-99.9,-99.9,0,0,100,30.11,30.03,17,7,0,0.00
2013-12-2,32.0,30.3,27.0,-99.9,-99.9,-99.9,0,0,100,29.98,29.93,16,8,0,0.00
2013-12-3,38.0,35.0,29.0,-99.9,-99.9,-99.9,0,0,100,30.01,29.92,22,15,0,0.00
2013-12-4,59.0,49.2,41.0,-99.9,-99.9,-99.9,0,0,100,29.92,29.80,14,9,0,0.00
2013-12-5,60.0,46.7,37.0,-99.9,-99.9,-99.9,0,0,100,30.03,29.70,28,18,0,0.00
2013-12-6,29.0,23.3,20.0,-99.9,-99.9,-99.9,0,0,100,30.22,30.06,38,29,0,0.00
2013-12-7,16.0,14.6,14.0,-99.9,-99.9,-99.9,0,0,100,30.47,30.29,23,22,0,0.00
2013-12-8,15.0,10.6,4.0,-99.9,-99.9,-99.9,0,0,100,30.50,30.30,32,20,0,0.00
2013-12-9,24.0,19.8,14.0,-99.9,-99.9,-99.9,0,0,100,30.11,29.71,23,9,0,0.00
2013-12-10,24.0,16.2,11.0,-99.9,-99.9,-99.9,0,0,100,30.05,29.94,37,26,0,0.00
2013-12-11,23.0,20.4,18.0,-99.9,-99.9,-99.9,0,0,100,30.35,30.24,23,10,0,0.00
2013-12-12,17.0,12.9,10.0,-99.9,-99.9,-99.9,0,0,100,30.37,30.02,37,29,0,0.00
2013-12-13,14.0,8.8,1.0,-99.9,-99.9,-99.9,0,0,100,30.39,29.96,28,16,0,0.00
2013-12-14,13.0,7.9,1.0,-99.9,-99.9,-99.9,0,0,100,30.43,30.16,26,16,0,0.00
2013-12-15,24.0,22.7,20.0,-99.9,-99.9,-99.9,0,0,100,29.91,29.73,29,22,0,0.00
2013-12-16,18.0,14.9,10.0,-99.9,-99.9,-99.9,0,0,100,30.21,30.06,11,7,0,0.00
2013-12-17,22.0,19.7,17.0,-99.9,-99.9,-99.9,0,0,100,30.05,29.82,31,14,0,0.00
2013-12-18,23.0,19.6,18.0,-99.9,-99.9,-99.9,0,0,100,29.97,29.80,29,21,0,0.00
2013-12-19,27.0,21.8,18.0,-99.9,-99.9,-99.9,0,0,100,30.16,29.74,20,12,0,0.00
2013-12-20,24.0,22.1,20.0,-99.9,-99.9,-99.9,0,0,100,30.13,29.98,18,11,0,0.00
2013-12-21,33.0,25.1,16.0,-99.9,-99.9,-99.9,0,0,100,29.95,29.91,26,16,0,0.00
2013-12-22,40.0,35.9,33.0,-99.9,-99.9,-99.9,0,0,100,29.94,29.60,32,14,0,0.00
2013-12-23,37.0,32.8,30.0,-99.9,-99.9,-99.9,0,0,100,30.31,30.03,32,16,0,0.00
2013-12-24,21.0,7.4,-5.0,-99.9,-99.9,-99.9,0,0,100,30.50,30.26,25,12,0,0.00
2013-12-25,20.0,13.4,3.0,-99.9,-99.9,-99.9,0,0,100,30.43,30.04,33,13,0,0.00
2013-12-26,23.0,18.5,8.0,-99.9,-99.9,-99.9,0,0,100,30.11,30.09,31,12,0,0.00
2013-12-27,33.0,19.2,11.0,-99.9,-99.9,-99.9,0,0,100,30.20,29.78,40,17,0,0.00
2013-12-28,37.0,32.9,28.0,-99.9,-99.9,-99.9,0,0,100,30.00,29.87,20,14,0,0.00
2013-12-29,42.0,36.8,23.0,-99.9,-99.9,-99.9,0,0,100,29.94,29.71,37,12,0,0.00
2013-12-30,11.0,4.6,-6.0,-99.9,-99.9,-99.9,0,0,100,30.24,29.98,38,18,0,0.00
2013-12-31,15.0,5.3,-1.0,-99.9,-99.9,-99.9,0,0,100,30.27,29.95,32,18,0,0.00
2014-1-1,2.0,-4.7,-7.0,-99.9,-99.9,-99.9,0,0,100,30.50,30.45,21,9,0,0.00
2014-1-2,-2.0,-11.5,-17.0,-99.9,-99.9,-99.9,0,0,100,30.46,30.36,8,4,0,0.00